sensor_id;sensor_type;location;lat;lon;timestamp;pressure;altitude;pressure_sealevel;temperature;humidity
46718;BME280;32448;44.960;-0.698;2022-09-03T00:02:25;101006.56;;;17.91;100.00
46718;BME280;32448;44.960;-0.698;2022-09-03T00:07:35;100973.28;;;17.69;100.00
46718;BME280;32448;44.960;-0.698;2022-09-03T00:10:08;100992.63;;;17.77;100.00
46718;BME280;32448;44.960;-0.698;2022-09-03T00:12:39;100995.28;;;17.74;100.00
46718;BME280;32448;44.960;-0.698;2022-09-03T00:15:18;100990.00;;;17.74;100.00
46718;BME280;32448;44.960;-0.698;2022-09-03T00:17:47;100988.25;;;17.70;100.00
46718;BME280;32448;44.960;-0.698;2022-09-03T00:20:30;100993.59;;;17.65;100.00
46718;BME280;32448;44.960;-0.698;2022-09-03T00:22:59;100990.97;;;17.64;100.00
46718;BME280;32448;44.960;-0.698;2022-09-03T00:25:45;100998.94;;;17.53;100.00
46718;BME280;32448;44.960;-0.698;2022-09-03T00:28:17;101001.59;;;17.53;100.00
46718;BME280;32448;44.960;-0.698;2022-09-03T00:30:49;100991.06;;;17.45;100.00
46718;BME280;32448;44.960;-0.698;2022-09-03T00:33:21;100991.94;;;17.47;100.00
46718;BME280;32448;44.960;-0.698;2022-09-03T00:36:13;100992.88;;;17.39;100.00
46718;BME280;32448;44.960;-0.698;2022-09-03T00:38:40;100991.13;;;17.38;100.00
46718;BME280;32448;44.960;-0.698;2022-09-03T00:41:37;101001.69;;;17.36;100.00
46718;BME280;32448;44.960;-0.698;2022-09-03T00:47:01;100994.72;;;17.28;100.00
46718;BME280;32448;44.960;-0.698;2022-09-03T00:53:03;101003.53;;;17.27;100.00
46718;BME280;32448;44.960;-0.698;2022-09-03T00:55:47;100992.97;;;17.25;100.00
46718;BME280;32448;44.960;-0.698;2022-09-03T00:58:18;100996.50;;;17.27;100.00
46718;BME280;32448;44.960;-0.698;2022-09-03T01:00:45;100991.28;;;17.18;100.00
46718;BME280;32448;44.960;-0.698;2022-09-03T01:08:49;100989.53;;;17.13;100.00
46718;BME280;32448;44.960;-0.698;2022-09-03T01:11:31;100974.63;;;17.02;100.00
46718;BME280;32448;44.960;-0.698;2022-09-03T01:17:30;100992.22;;;17.11;100.00
46718;BME280;32448;44.960;-0.698;2022-09-03T01:26:15;100986.94;;;17.05;100.00
46718;BME280;32448;44.960;-0.698;2022-09-03T01:28:58;100985.19;;;17.05;100.00
46718;BME280;32448;44.960;-0.698;2022-09-03T01:32:31;100986.94;;;17.05;100.00
46718;BME280;32448;44.960;-0.698;2022-09-03T01:34:55;100976.41;;;17.02;100.00
46718;BME280;32448;44.960;-0.698;2022-09-03T01:40:27;100980.84;;;16.98;100.00
46718;BME280;32448;44.960;-0.698;2022-09-03T01:43:29;100985.19;;;17.04;100.00
46718;BME280;32448;44.960;-0.698;2022-09-03T01:46:09;100983.41;;;17.07;100.00
46718;BME280;32448;44.960;-0.698;2022-09-03T01:48:52;100957.09;;;16.95;100.00
46718;BME280;32448;44.960;-0.698;2022-09-03T01:51:30;100966.69;;;17.04;100.00
46718;BME280;32448;44.960;-0.698;2022-09-03T02:02:27;100982.59;;;17.01;100.00
46718;BME280;32448;44.960;-0.698;2022-09-03T02:05:08;100979.91;;;17.04;100.00
46718;BME280;32448;44.960;-0.698;2022-09-03T02:07:46;100983.47;;;16.98;100.00
46718;BME280;32448;44.960;-0.698;2022-09-03T02:10:15;100974.69;;;16.92;100.00
46718;BME280;32448;44.960;-0.698;2022-09-03T02:12:47;100969.47;;;16.80;100.00
46718;BME280;32448;44.960;-0.698;2022-09-03T02:15:16;100973.88;;;16.85;100.00
46718;BME280;32448;44.960;-0.698;2022-09-03T02:17:45;100983.56;;;16.85;100.00
46718;BME280;32448;44.960;-0.698;2022-09-03T02:20:16;100987.06;;;16.82;100.00
46718;BME280;32448;44.960;-0.698;2022-09-03T02:22:45;100975.69;;;16.77;100.00
46718;BME280;32448;44.960;-0.698;2022-09-03T02:25:12;100972.16;;;16.70;100.00
46718;BME280;32448;44.960;-0.698;2022-09-03T02:27:38;100976.63;;;16.65;100.00
46718;BME280;32448;44.960;-0.698;2022-09-03T02:30:04;100978.34;;;16.68;100.00
46718;BME280;32448;44.960;-0.698;2022-09-03T02:32:30;100976.56;;;16.68;100.00
46718;BME280;32448;44.960;-0.698;2022-09-03T02:34:56;100983.66;;;16.66;100.00
46718;BME280;32448;44.960;-0.698;2022-09-03T02:37:22;100984.53;;;16.65;100.00
46718;BME280;32448;44.960;-0.698;2022-09-03T02:39:48;100981.88;;;16.61;100.00
46718;BME280;32448;44.960;-0.698;2022-09-03T02:42:16;100983.63;;;16.59;100.00
46718;BME280;32448;44.960;-0.698;2022-09-03T02:44:47;100950.28;;;16.38;100.00
46718;BME280;32448;44.960;-0.698;2022-09-03T02:47:14;100991.59;;;16.53;100.00
46718;BME280;32448;44.960;-0.698;2022-09-03T02:49:40;100995.16;;;16.44;100.00
46718;BME280;32448;44.960;-0.698;2022-09-03T02:52:09;100990.72;;;16.48;100.00
46718;BME280;32448;44.960;-0.698;2022-09-03T02:54:36;100981.06;;;16.42;100.00
46718;BME280;32448;44.960;-0.698;2022-09-03T02:57:11;100988.06;;;16.52;100.00
46718;BME280;32448;44.960;-0.698;2022-09-03T02:59:38;100978.41;;;16.48;100.00
46718;BME280;32448;44.960;-0.698;2022-09-03T03:02:04;100969.66;;;16.37;100.00
46718;BME280;32448;44.960;-0.698;2022-09-03T03:04:31;100971.41;;;16.39;100.00
46718;BME280;32448;44.960;-0.698;2022-09-03T03:06:57;100976.66;;;16.46;100.00
46718;BME280;32448;44.960;-0.698;2022-09-03T03:09:23;100982.88;;;16.34;100.00
46718;BME280;32448;44.960;-0.698;2022-09-03T03:11:49;100972.31;;;16.29;100.00
46718;BME280;32448;44.960;-0.698;2022-09-03T03:14:17;100974.06;;;16.27;100.00
46718;BME280;32448;44.960;-0.698;2022-09-03T03:16:43;100989.03;;;16.34;100.00
46718;BME280;32448;44.960;-0.698;2022-09-03T03:19:09;100990.78;;;16.29;100.00
46718;BME280;32448;44.960;-0.698;2022-09-03T03:21:35;101001.34;;;16.28;100.00
46718;BME280;32448;44.960;-0.698;2022-09-03T03:24:01;101003.09;;;16.24;100.00
46718;BME280;32448;44.960;-0.698;2022-09-03T03:26:27;100996.09;;;16.19;100.00
46718;BME280;32448;44.960;-0.698;2022-09-03T03:28:58;100984.69;;;16.12;100.00
46718;BME280;32448;44.960;-0.698;2022-09-03T03:31:25;100999.59;;;16.16;100.00
46718;BME280;32448;44.960;-0.698;2022-09-03T03:33:53;101000.50;;;16.11;100.00
46718;BME280;32448;44.960;-0.698;2022-09-03T03:36:20;100995.22;;;16.15;100.00
46718;BME280;32448;44.960;-0.698;2022-09-03T03:38:46;100997.88;;;16.12;100.00
46718;BME280;32448;44.960;-0.698;2022-09-03T03:41:17;100994.34;;;16.10;100.00
46718;BME280;32448;44.960;-0.698;2022-09-03T03:43:44;100987.31;;;16.06;100.00
46718;BME280;32448;44.960;-0.698;2022-09-03T03:46:10;100990.84;;;16.03;100.00
46718;BME280;32448;44.960;-0.698;2022-09-03T03:48:36;100974.16;;;15.95;100.00
46718;BME280;32448;44.960;-0.698;2022-09-03T03:51:05;100997.88;;;16.05;100.00
46718;BME280;32448;44.960;-0.698;2022-09-03T03:53:36;100976.78;;;15.91;100.00
46718;BME280;32448;44.960;-0.698;2022-09-03T03:56:03;100988.22;;;15.94;100.00
46718;BME280;32448;44.960;-0.698;2022-09-03T03:58:30;100995.25;;;15.94;100.00
46718;BME280;32448;44.960;-0.698;2022-09-03T04:01:10;101001.44;;;15.88;100.00
46718;BME280;32448;44.960;-0.698;2022-09-03T04:03:36;100997.03;;;15.89;100.00
46718;BME280;32448;44.960;-0.698;2022-09-03T04:06:03;100989.09;;;15.81;100.00
46718;BME280;32448;44.960;-0.698;2022-09-03T04:08:29;100994.38;;;15.84;100.00
46718;BME280;32448;44.960;-0.698;2022-09-03T04:11:00;100997.91;;;15.88;100.00
46718;BME280;32448;44.960;-0.698;2022-09-03T04:13:33;100987.38;;;15.77;100.00
46718;BME280;32448;44.960;-0.698;2022-09-03T04:16:08;100981.22;;;15.75;100.00
46718;BME280;32448;44.960;-0.698;2022-09-03T04:18:34;100987.38;;;15.79;100.00
46718;BME280;32448;44.960;-0.698;2022-09-03T04:21:01;100982.97;;;15.76;100.00
46718;BME280;32448;44.960;-0.698;2022-09-03T04:23:32;100982.97;;;15.72;100.00
46718;BME280;32448;44.960;-0.698;2022-09-03T04:25:58;100984.72;;;15.70;100.00
46718;BME280;32448;44.960;-0.698;2022-09-03T04:28:24;100990.88;;;15.72;100.00
46718;BME280;32448;44.960;-0.698;2022-09-03T04:30:50;100988.25;;;15.65;100.00
46718;BME280;32448;44.960;-0.698;2022-09-03T04:33:15;100984.75;;;15.67;100.00
46718;BME280;32448;44.960;-0.698;2022-09-03T04:35:41;100968.06;;;15.64;100.00
46718;BME280;32448;44.960;-0.698;2022-09-03T04:38:07;100974.19;;;15.63;100.00
46718;BME280;32448;44.960;-0.698;2022-09-03T04:40:33;100984.75;;;15.62;100.00
46718;BME280;32448;44.960;-0.698;2022-09-03T04:42:59;100965.41;;;15.61;100.00
46718;BME280;32448;44.960;-0.698;2022-09-03T04:45:25;100977.69;;;15.72;100.00
46718;BME280;32448;44.960;-0.698;2022-09-03T04:48:03;100983.00;;;15.67;100.00
46718;BME280;32448;44.960;-0.698;2022-09-03T04:50:31;100970.69;;;15.60;100.00
46718;BME280;32448;44.960;-0.698;2022-09-03T04:53:01;100987.38;;;15.67;100.00
46718;BME280;32448;44.960;-0.698;2022-09-03T04:55:27;100980.34;;;15.58;100.00
46718;BME280;32448;44.960;-0.698;2022-09-03T04:57:58;100981.22;;;15.61;100.00
46718;BME280;32448;44.960;-0.698;2022-09-03T05:00:23;100986.50;;;15.57;100.00
46718;BME280;32448;44.960;-0.698;2022-09-03T05:02:49;100994.41;;;15.60;100.00
46718;BME280;32448;44.960;-0.698;2022-09-03T05:05:16;100979.44;;;15.50;100.00
46718;BME280;32448;44.960;-0.698;2022-09-03T05:07:42;100988.25;;;15.58;100.00
46718;BME280;32448;44.960;-0.698;2022-09-03T05:10:10;100975.06;;;15.58;100.00
46718;BME280;32448;44.960;-0.698;2022-09-03T05:12:46;100982.09;;;15.62;100.00
46718;BME280;32448;44.960;-0.698;2022-09-03T05:15:14;100982.09;;;15.60;100.00
46718;BME280;32448;44.960;-0.698;2022-09-03T05:17:40;100978.59;;;15.64;100.00
46718;BME280;32448;44.960;-0.698;2022-09-03T05:20:06;100968.94;;;15.67;100.00
46718;BME280;32448;44.960;-0.698;2022-09-03T05:22:34;100973.31;;;15.71;100.00
46718;BME280;32448;44.960;-0.698;2022-09-03T05:25:00;100981.22;;;15.74;100.00
46718;BME280;32448;44.960;-0.698;2022-09-03T05:27:26;100975.06;;;15.75;100.00
46718;BME280;32448;44.960;-0.698;2022-09-03T05:29:51;100982.09;;;15.71;100.00
46718;BME280;32448;44.960;-0.698;2022-09-03T05:32:17;100985.63;;;15.75;100.00
46718;BME280;32448;44.960;-0.698;2022-09-03T05:34:42;100985.59;;;15.72;100.00
46718;BME280;32448;44.960;-0.698;2022-09-03T05:37:09;100983.84;;;15.75;100.00
46718;BME280;32448;44.960;-0.698;2022-09-03T05:39:35;100981.22;;;15.72;100.00
46718;BME280;32448;44.960;-0.698;2022-09-03T05:42:01;100986.50;;;15.68;100.00
46718;BME280;32448;44.960;-0.698;2022-09-03T05:44:27;100989.16;;;15.68;100.00
46718;BME280;32448;44.960;-0.698;2022-09-03T05:46:53;100992.63;;;15.73;100.00
46718;BME280;32448;44.960;-0.698;2022-09-03T05:49:19;100995.28;;;15.68;100.00
46718;BME280;32448;44.960;-0.698;2022-09-03T05:51:45;100974.19;;;15.59;100.00
46718;BME280;32448;44.960;-0.698;2022-09-03T05:54:10;101006.69;;;15.69;100.00
46718;BME280;32448;44.960;-0.698;2022-09-03T05:56:38;100995.28;;;15.63;100.00
46718;BME280;32448;44.960;-0.698;2022-09-03T05:59:06;101002.31;;;15.68;100.00
46718;BME280;32448;44.960;-0.698;2022-09-03T06:01:42;100996.16;;;15.72;100.00
46718;BME280;32448;44.960;-0.698;2022-09-03T06:04:12;100999.69;;;15.77;100.00
46718;BME280;32448;44.960;-0.698;2022-09-03T06:06:43;100999.69;;;15.78;100.00
46718;BME280;32448;44.960;-0.698;2022-09-03T06:09:13;100997.03;;;15.78;100.00
46718;BME280;32448;44.960;-0.698;2022-09-03T06:11:41;101004.06;;;15.85;100.00
46718;BME280;32448;44.960;-0.698;2022-09-03T06:14:09;101008.44;;;15.91;100.00
46718;BME280;32448;44.960;-0.698;2022-09-03T06:16:38;101012.84;;;15.87;100.00
46718;BME280;32448;44.960;-0.698;2022-09-03T06:19:05;101009.34;;;15.90;100.00
46718;BME280;32448;44.960;-0.698;2022-09-03T06:21:40;101011.94;;;15.93;100.00
46718;BME280;32448;44.960;-0.698;2022-09-03T06:24:33;101026.00;;;15.99;100.00
46718;BME280;32448;44.960;-0.698;2022-09-03T06:26:59;101017.22;;;15.99;100.00
46718;BME280;32448;44.960;-0.698;2022-09-03T06:29:25;101003.16;;;15.97;100.00
46718;BME280;32448;44.960;-0.698;2022-09-03T06:31:51;101028.63;;;16.12;100.00
46718;BME280;32448;44.960;-0.698;2022-09-03T06:34:19;101034.78;;;16.11;100.00
46718;BME280;32448;44.960;-0.698;2022-09-03T06:36:47;101036.53;;;16.13;100.00
46718;BME280;32448;44.960;-0.698;2022-09-03T06:39:12;101036.56;;;16.12;100.00
46718;BME280;32448;44.960;-0.698;2022-09-03T06:41:38;101040.06;;;16.23;100.00
46718;BME280;32448;44.960;-0.698;2022-09-03T06:44:06;101036.50;;;16.31;100.00
46718;BME280;32448;44.960;-0.698;2022-09-03T06:46:36;101012.78;;;16.18;100.00
46718;BME280;32448;44.960;-0.698;2022-09-03T06:49:09;101039.13;;;16.37;100.00
46718;BME280;32448;44.960;-0.698;2022-09-03T06:51:36;101049.66;;;16.39;100.00
46718;BME280;32448;44.960;-0.698;2022-09-03T06:54:04;101041.72;;;16.50;100.00
46718;BME280;32448;44.960;-0.698;2022-09-03T06:56:31;101039.94;;;16.59;100.00
46718;BME280;32448;44.960;-0.698;2022-09-03T06:58:58;101039.97;;;16.67;100.00
46718;BME280;32448;44.960;-0.698;2022-09-03T07:01:28;101032.00;;;16.71;100.00
46718;BME280;32448;44.960;-0.698;2022-09-03T07:04:02;101037.28;;;16.78;100.00
46718;BME280;32448;44.960;-0.698;2022-09-03T07:06:30;101035.41;;;16.95;100.00
46718;BME280;32448;44.960;-0.698;2022-09-03T07:08:56;101020.47;;;16.91;100.00
46718;BME280;32448;44.960;-0.698;2022-09-03T07:11:29;101033.63;;;17.03;100.00
46718;BME280;32448;44.960;-0.698;2022-09-03T07:13:56;101034.50;;;17.05;100.00
46718;BME280;32448;44.960;-0.698;2022-09-03T07:16:25;101026.56;;;17.06;100.00
46718;BME280;32448;44.960;-0.698;2022-09-03T07:18:53;101036.19;;;17.20;100.00
46718;BME280;32448;44.960;-0.698;2022-09-03T07:21:21;101035.28;;;17.22;100.00
46718;BME280;32448;44.960;-0.698;2022-09-03T07:23:47;101029.97;;;17.27;100.00
46718;BME280;32448;44.960;-0.698;2022-09-03T07:26:21;101025.44;;;17.44;100.00
46718;BME280;32448;44.960;-0.698;2022-09-03T07:28:47;101034.13;;;17.61;100.00
46718;BME280;32448;44.960;-0.698;2022-09-03T07:31:17;101025.38;;;17.56;100.00
46718;BME280;32448;44.960;-0.698;2022-09-03T07:33:47;101032.38;;;17.63;100.00
46718;BME280;32448;44.960;-0.698;2022-09-03T07:36:15;101027.88;;;17.77;100.00
46718;BME280;32448;44.960;-0.698;2022-09-03T07:38:42;101030.22;;;18.08;100.00
46718;BME280;32448;44.960;-0.698;2022-09-03T07:41:12;101029.13;;;18.29;100.00
46718;BME280;32448;44.960;-0.698;2022-09-03T07:43:43;101022.09;;;18.28;100.00
46718;BME280;32448;44.960;-0.698;2022-09-03T07:46:12;101037.06;;;18.30;100.00
46718;BME280;32448;44.960;-0.698;2022-09-03T07:48:40;101043.94;;;18.45;100.00
46718;BME280;32448;44.960;-0.698;2022-09-03T07:51:06;101040.44;;;18.44;100.00
46718;BME280;32448;44.960;-0.698;2022-09-03T07:53:32;101039.41;;;18.59;100.00
46718;BME280;32448;44.960;-0.698;2022-09-03T07:56:03;101032.28;;;18.66;100.00
46718;BME280;32448;44.960;-0.698;2022-09-03T07:58:30;101053.28;;;18.79;100.00
46718;BME280;32448;44.960;-0.698;2022-09-03T08:00:57;101047.81;;;18.95;100.00
46718;BME280;32448;44.960;-0.698;2022-09-03T08:03:23;101052.00;;;19.11;100.00
46718;BME280;32448;44.960;-0.698;2022-09-03T08:05:49;101046.50;;;19.24;100.00
46718;BME280;32448;44.960;-0.698;2022-09-03T08:08:15;101041.03;;;19.37;100.00
46718;BME280;32448;44.960;-0.698;2022-09-03T08:10:42;101035.56;;;19.46;100.00
46718;BME280;32448;44.960;-0.698;2022-09-03T08:13:09;101054.81;;;19.63;100.00
46718;BME280;32448;44.960;-0.698;2022-09-03T08:16:15;101054.53;;;19.80;100.00
46718;BME280;32448;44.960;-0.698;2022-09-03T08:19:00;101056.94;;;19.95;100.00
46718;BME280;32448;44.960;-0.698;2022-09-03T08:22:05;101061.91;;;20.13;100.00
46718;BME280;32448;44.960;-0.698;2022-09-03T08:24:37;101049.47;;;20.17;100.00
46718;BME280;32448;44.960;-0.698;2022-09-03T08:27:04;101072.94;;;20.41;100.00
46718;BME280;32448;44.960;-0.698;2022-09-03T08:29:33;101067.31;;;20.56;100.00
46718;BME280;32448;44.960;-0.698;2022-09-03T08:31:59;101067.00;;;20.75;100.00
46718;BME280;32448;44.960;-0.698;2022-09-03T08:34:25;101062.22;;;20.90;100.00
46718;BME280;32448;44.960;-0.698;2022-09-03T08:36:51;101052.34;;;20.97;100.00
46718;BME280;32448;44.960;-0.698;2022-09-03T08:39:18;101064.31;;;21.19;100.00
46718;BME280;32448;44.960;-0.698;2022-09-03T08:47:11;101061.69;;;21.55;100.00
46718;BME280;32448;44.960;-0.698;2022-09-03T08:50:06;101074.25;;;21.87;100.00
46718;BME280;32448;44.960;-0.698;2022-09-03T08:53:11;101075.72;;;21.98;100.00
46718;BME280;32448;44.960;-0.698;2022-09-03T08:56:02;101069.44;;;22.02;100.00
46718;BME280;32448;44.960;-0.698;2022-09-03T08:58:32;101077.59;;;21.95;100.00
46718;BME280;32448;44.960;-0.698;2022-09-03T09:01:05;101068.25;;;21.77;100.00
46718;BME280;32448;44.960;-0.698;2022-09-03T09:04:03;101088.50;;;21.84;100.00
46718;BME280;32448;44.960;-0.698;2022-09-03T09:14:24;101086.09;;;22.43;100.00
46718;BME280;32448;44.960;-0.698;2022-09-03T09:17:28;101072.50;;;22.53;100.00
46718;BME280;32448;44.960;-0.698;2022-09-03T09:20:08;101091.50;;;22.74;100.00
46718;BME280;32448;44.960;-0.698;2022-09-03T09:22:40;101071.88;;;22.76;100.00
46718;BME280;32448;44.960;-0.698;2022-09-03T09:25:10;101083.06;;;22.89;100.00
46718;BME280;32448;44.960;-0.698;2022-09-03T09:28:01;101068.72;;;22.95;100.00
46718;BME280;32448;44.960;-0.698;2022-09-03T09:30:29;101081.34;;;23.17;100.00
46718;BME280;32448;44.960;-0.698;2022-09-03T09:32:55;101085.53;;;23.26;100.00
46718;BME280;32448;44.960;-0.698;2022-09-03T09:35:22;101092.03;;;23.45;100.00
46718;BME280;32448;44.960;-0.698;2022-09-03T09:37:50;101071.25;;;23.56;91.58
46718;BME280;32448;44.960;-0.698;2022-09-03T09:43:08;101093.53;;;23.83;89.05
46718;BME280;32448;44.960;-0.698;2022-09-03T09:45:39;101087.31;;;23.83;93.20
46718;BME280;32448;44.960;-0.698;2022-09-03T09:48:36;101086.72;;;24.01;80.51
46718;BME280;32448;44.960;-0.698;2022-09-03T09:51:05;101088.50;;;24.01;87.29
46718;BME280;32448;44.960;-0.698;2022-09-03T09:53:31;101088.19;;;23.83;92.55
46718;BME280;32448;44.960;-0.698;2022-09-03T09:55:59;101082.97;;;23.52;90.13
46718;BME280;32448;44.960;-0.698;2022-09-03T09:58:28;101090.19;;;23.19;86.59
46718;BME280;32448;44.960;-0.698;2022-09-03T10:01:19;101091.97;;;23.19;88.82
46718;BME280;32448;44.960;-0.698;2022-09-03T10:03:58;101086.72;;;23.16;90.53
46718;BME280;32448;44.960;-0.698;2022-09-03T10:06:32;101093.78;;;23.18;91.48
46718;BME280;32448;44.960;-0.698;2022-09-03T10:09:19;101093.06;;;23.12;94.27
46718;BME280;32448;44.960;-0.698;2022-09-03T10:12:01;101086.91;;;23.10;95.81
46718;BME280;32448;44.960;-0.698;2022-09-03T10:14:52;101084.31;;;23.08;97.35
46718;BME280;32448;44.960;-0.698;2022-09-03T10:17:23;101074.31;;;23.15;93.21
46718;BME280;32448;44.960;-0.698;2022-09-03T10:22:46;101059.84;;;23.79;88.98
46718;BME280;32448;44.960;-0.698;2022-09-03T10:25:15;101067.50;;;24.16;84.80
46718;BME280;32448;44.960;-0.698;2022-09-03T10:27:42;101065.34;;;24.52;82.95
46718;BME280;32448;44.960;-0.698;2022-09-03T10:30:13;101047.13;;;24.63;74.77
46718;BME280;32448;44.960;-0.698;2022-09-03T10:33:08;101064.16;;;24.61;72.77
46718;BME280;32448;44.960;-0.698;2022-09-03T10:36:06;101071.25;;;24.37;76.70
46718;BME280;32448;44.960;-0.698;2022-09-03T10:38:41;101057.56;;;24.20;78.35
46718;BME280;32448;44.960;-0.698;2022-09-03T10:41:20;101079.75;;;24.23;79.79
46718;BME280;32448;44.960;-0.698;2022-09-03T10:44:34;101075.63;;;24.13;76.56
46718;BME280;32448;44.960;-0.698;2022-09-03T10:47:31;101084.00;;;24.03;79.73
46718;BME280;32448;44.960;-0.698;2022-09-03T10:55:23;101055.94;;;24.16;80.67
46718;BME280;32448;44.960;-0.698;2022-09-03T11:00:52;101072.28;;;24.58;76.71
46718;BME280;32448;44.960;-0.698;2022-09-03T11:06:18;101059.84;;;24.57;71.13
46718;BME280;32448;44.960;-0.698;2022-09-03T11:09:19;101051.22;;;24.74;74.20
46718;BME280;32448;44.960;-0.698;2022-09-03T11:12:26;101061.53;;;24.84;72.72
46718;BME280;32448;44.960;-0.698;2022-09-03T11:15:15;101049.13;;;24.82;73.17
46718;BME280;32448;44.960;-0.698;2022-09-03T11:17:58;101049.22;;;24.79;73.34
46718;BME280;32448;44.960;-0.698;2022-09-03T11:20:26;101048.41;;;24.77;73.75
46718;BME280;32448;44.960;-0.698;2022-09-03T11:22:56;101044.59;;;24.84;72.06
46718;BME280;32448;44.960;-0.698;2022-09-03T11:25:31;101049.34;;;25.00;70.93
46718;BME280;32448;44.960;-0.698;2022-09-03T11:30:53;101061.63;;;25.06;67.96
46718;BME280;32448;44.960;-0.698;2022-09-03T11:33:28;101040.03;;;24.86;67.21
46718;BME280;32448;44.960;-0.698;2022-09-03T11:35:58;101046.41;;;24.83;68.84
46718;BME280;32448;44.960;-0.698;2022-09-03T11:38:28;101043.38;;;24.69;69.03
46718;BME280;32448;44.960;-0.698;2022-09-03T11:43:27;101041.03;;;24.60;66.98
46718;BME280;32448;44.960;-0.698;2022-09-03T11:46:05;101050.56;;;24.67;69.03
46718;BME280;32448;44.960;-0.698;2022-09-03T11:48:46;101049.69;;;24.66;65.17
46718;BME280;32448;44.960;-0.698;2022-09-03T11:53:54;101046.53;;;24.55;66.79
46718;BME280;32448;44.960;-0.698;2022-09-03T11:56:20;101049.00;;;24.61;67.90
46718;BME280;32448;44.960;-0.698;2022-09-03T11:58:46;101038.31;;;24.61;66.77
46718;BME280;32448;44.960;-0.698;2022-09-03T12:01:26;101029.41;;;24.61;67.23
46718;BME280;32448;44.960;-0.698;2022-09-03T12:04:04;101043.13;;;24.75;67.07
46718;BME280;32448;44.960;-0.698;2022-09-03T12:10:01;101038.88;;;25.18;62.63
46718;BME280;32448;44.960;-0.698;2022-09-03T12:18:05;101033.75;;;25.33;62.07
46718;BME280;32448;44.960;-0.698;2022-09-03T12:20:45;101034.75;;;25.31;60.32
46718;BME280;32448;44.960;-0.698;2022-09-03T12:23:13;101045.81;;;25.22;60.64
46718;BME280;32448;44.960;-0.698;2022-09-03T12:25:46;101028.44;;;25.10;60.57
46718;BME280;32448;44.960;-0.698;2022-09-03T12:28:16;101027.97;;;25.22;59.32
46718;BME280;32448;44.960;-0.698;2022-09-03T12:30:48;101031.28;;;25.29;57.34
46718;BME280;32448;44.960;-0.698;2022-09-03T12:33:22;101034.06;;;25.26;60.76
46718;BME280;32448;44.960;-0.698;2022-09-03T12:36:07;101021.25;;;25.34;59.30
46718;BME280;32448;44.960;-0.698;2022-09-03T12:38:34;101030.44;;;25.50;57.47
46718;BME280;32448;44.960;-0.698;2022-09-03T12:41:02;101023.63;;;25.42;57.62
46718;BME280;32448;44.960;-0.698;2022-09-03T12:43:29;101033.72;;;25.57;56.76
46718;BME280;32448;44.960;-0.698;2022-09-03T12:45:55;101016.44;;;25.42;57.02
46718;BME280;32448;44.960;-0.698;2022-09-03T12:48:24;101035.84;;;25.49;57.66
46718;BME280;32448;44.960;-0.698;2022-09-03T12:51:01;101040.69;;;25.39;57.83
46718;BME280;32448;44.960;-0.698;2022-09-03T12:53:32;101036.72;;;25.49;58.34
46718;BME280;32448;44.960;-0.698;2022-09-03T12:55:59;101026.81;;;25.51;58.02
46718;BME280;32448;44.960;-0.698;2022-09-03T12:58:38;101035.50;;;25.56;58.08
46718;BME280;32448;44.960;-0.698;2022-09-03T13:01:11;101030.50;;;25.70;57.99
46718;BME280;32448;44.960;-0.698;2022-09-03T13:06:12;101021.47;;;25.51;56.16
46718;BME280;32448;44.960;-0.698;2022-09-03T13:08:46;101035.41;;;25.59;56.10
46718;BME280;32448;44.960;-0.698;2022-09-03T13:11:17;101018.09;;;25.46;55.03
46718;BME280;32448;44.960;-0.698;2022-09-03T13:13:55;101032.84;;;25.34;54.16
46718;BME280;32448;44.960;-0.698;2022-09-03T13:19:09;101032.59;;;25.41;56.95
46718;BME280;32448;44.960;-0.698;2022-09-03T13:30:04;101024.94;;;26.17;54.91
46718;BME280;32448;44.960;-0.698;2022-09-03T13:32:43;101037.38;;;26.18;52.01
46718;BME280;32448;44.960;-0.698;2022-09-03T13:43:02;101027.78;;;25.92;53.40
46718;BME280;32448;44.960;-0.698;2022-09-03T13:45:49;101030.06;;;26.01;53.70
46718;BME280;32448;44.960;-0.698;2022-09-03T13:51:37;101022.63;;;26.08;52.84
46718;BME280;32448;44.960;-0.698;2022-09-03T13:59:32;101010.44;;;26.01;53.91
46718;BME280;32448;44.960;-0.698;2022-09-03T14:07:33;101014.94;;;26.00;52.80
46718;BME280;32448;44.960;-0.698;2022-09-03T14:12:43;101021.75;;;25.87;52.11
46718;BME280;32448;44.960;-0.698;2022-09-03T14:15:27;101010.94;;;25.68;52.76
46718;BME280;32448;44.960;-0.698;2022-09-03T14:21:00;101014.91;;;25.58;52.73
46718;BME280;32448;44.960;-0.698;2022-09-03T14:26:04;101002.28;;;26.04;53.89
46718;BME280;32448;44.960;-0.698;2022-09-03T14:28:36;100994.50;;;26.18;53.22
46718;BME280;32448;44.960;-0.698;2022-09-03T14:40:18;100997.56;;;26.70;50.79
46718;BME280;32448;44.960;-0.698;2022-09-03T14:45:54;100996.81;;;26.66;49.38
46718;BME280;32448;44.960;-0.698;2022-09-03T14:48:41;100995.06;;;27.04;50.38
46718;BME280;32448;44.960;-0.698;2022-09-03T15:00:15;100990.38;;;26.89;50.04
46718;BME280;32448;44.960;-0.698;2022-09-03T15:08:19;100995.88;;;26.86;49.71
46718;BME280;32448;44.960;-0.698;2022-09-03T15:10:54;100984.22;;;26.87;50.80
46718;BME280;32448;44.960;-0.698;2022-09-03T15:13:26;100978.00;;;26.29;48.76
46718;BME280;32448;44.960;-0.698;2022-09-03T15:27:37;100995.66;;;25.92;50.26
46718;BME280;32448;44.960;-0.698;2022-09-03T15:30:15;101002.72;;;25.73;50.47
46718;BME280;32448;44.960;-0.698;2022-09-03T15:38:12;100991.34;;;25.88;49.65
46718;BME280;32448;44.960;-0.698;2022-09-03T15:43:17;100993.94;;;25.69;50.02
46718;BME280;32448;44.960;-0.698;2022-09-03T15:51:07;101003.72;;;25.49;50.25
46718;BME280;32448;44.960;-0.698;2022-09-03T15:53:55;101005.97;;;25.37;49.33
46718;BME280;32448;44.960;-0.698;2022-09-03T15:56:49;101002.84;;;25.26;50.14
46718;BME280;32448;44.960;-0.698;2022-09-03T15:59:28;101000.72;;;25.13;50.24